Time;durP1;ratioP1;P1;durP2;ratioP2;P2;SDS_P1;SDS_P2;PMS_P1;PMS_P2;Temp;Humidity;BMP_temperature;BMP_pressure;BME280_temperature;BME280_humidity;BME280_pressure;Samples;Min_cycle;Max_cycle;Signal;HPM_P1;HPM_P2
2022/12/04 04:01:30;;;;;;;;;;;2.20;99.90;;;;;;5650871;23;19931;-70
2022/12/04 04:03:58;;;;;;;;;;;2.20;99.90;;;;;;4918043;29;19927;-70
2022/12/04 04:06:26;;;;;;;;;;;2.20;99.90;;;;;;4929033;29;19979;-70
2022/12/04 04:08:56;;;;;;;;;;;2.20;99.90;;;;;;4938410;29;19934;-70
2022/12/04 04:11:25;;;;;;;;;;;2.20;99.90;;;;;;4919665;29;20417;-68
2022/12/04 04:25:02;;;;;;;;;;;2.10;99.90;;;;;;4922264;29;20410;-71
2022/12/04 04:27:29;;;;;;;;;;;2.10;99.90;;;;;;4918388;29;19967;-70
2022/12/04 04:29:55;;;;;;;;;;;2.10;99.90;;;;;;4920009;29;20018;-70
2022/12/04 04:32:28;;;;;;;;;;;2.10;99.90;;;;;;4923205;29;19961;-70
2022/12/04 04:34:57;;;;;;;;;;;2.10;99.90;;;;;;4921799;29;20390;-70
2022/12/04 04:37:27;;;;;;;;;;;2.10;99.90;;;;;;4923012;29;20030;-70
2022/12/04 04:39:57;;;;;;;;;;;2.10;99.90;;;;;;4920952;29;19954;-71
2022/12/04 04:42:26;;;;;;;;;;;2.10;99.90;;;;;;4923978;29;20382;-70
2022/12/04 04:44:56;;;;;;;;;;;2.10;99.90;;;;;;4920091;29;20287;-70
2022/12/04 04:47:27;;;;;;;;;;;2.10;99.90;;;;;;4912923;29;20026;-71
2022/12/04 04:49:55;;;;;;;;;;;2.10;99.90;;;;;;4922785;29;19975;-71
2022/12/04 04:52:23;;;;;;;;;;;2.10;99.90;;;;;;4916631;29;19927;-70
2022/12/04 04:54:50;;;;;;;;;;;2.10;99.90;;;;;;4925722;29;20367;-70
2022/12/04 04:57:25;;;;;;;;;;;2.10;99.90;;;;;;4919116;29;20013;-70
2022/12/04 04:59:51;;;;;;;;;;;2.10;99.90;;;;;;4916494;29;19942;-70
2022/12/04 05:02:18;;;;;;;;;;;2.10;99.90;;;;;;4917784;29;20021;-70
2022/12/04 05:04:46;;;;;;;;;;;2.10;99.90;;;;;;4919808;29;20391;-70
2022/12/04 05:07:13;;;;;;;;;;;2.00;99.90;;;;;;4947571;29;20459;-70
2022/12/04 05:09:40;;;;;;;;;;;2.00;99.90;;;;;;4924975;29;19927;-70
2022/12/04 05:12:06;;;;;;;;;;;2.00;99.90;;;;;;4927320;29;19931;-71
2022/12/04 05:14:33;;;;;;;;;;;2.00;99.90;;;;;;4917022;29;20351;-70
2022/12/04 05:17:00;;;;;;;;;;;2.00;99.90;;;;;;4922818;29;20351;-70
2022/12/04 05:22:12;;;;;;;;;;;2.00;99.90;;;;;;4916485;29;19934;-70
2022/12/04 05:24:39;;;;;;;;;;;1.90;99.90;;;;;;4916642;29;19927;-70
2022/12/04 05:27:06;;;;;;;;;;;1.90;99.90;;;;;;4916292;29;20402;-69
2022/12/04 05:29:33;;;;;;;;;;;2.00;99.90;;;;;;4916331;29;19962;-70
2022/12/04 05:32:00;;;;;;;;;;;2.00;99.90;;;;;;4926235;29;19927;-69
2022/12/04 05:34:27;;;;;;;;;;;1.90;99.90;;;;;;4922688;29;19935;-68
2022/12/04 05:36:54;;;;;;;;;;;1.90;99.90;;;;;;4923894;29;19930;-71
2022/12/04 05:39:22;;;;;;;;;;;1.90;99.90;;;;;;4925668;29;19927;-70
2022/12/04 05:41:48;;;;;;;;;;;1.90;99.90;;;;;;4936355;28;19962;-70
2022/12/04 05:44:15;;;;;;;;;;;1.90;99.90;;;;;;4915882;29;19931;-70
2022/12/04 05:46:42;;;;;;;;;;;1.90;99.90;;;;;;4917100;29;19927;-69
2022/12/04 05:49:09;;;;;;;;;;;1.90;99.90;;;;;;4928570;29;20464;-70
2022/12/04 05:51:36;;;;;;;;;;;1.80;99.90;;;;;;4925826;29;19927;-71
2022/12/04 05:54:02;;;;;;;;;;;1.80;99.90;;;;;;4915858;29;20457;-70
2022/12/04 05:56:30;;;;;;;;;;;1.80;99.90;;;;;;4915960;29;19974;-70
2022/12/04 05:58:57;;;;;;;;;;;1.80;99.90;;;;;;4913987;29;20386;-71
2022/12/04 06:01:25;;;;;;;;;;;1.80;99.90;;;;;;4913646;29;20406;-70
2022/12/04 06:03:51;;;;;;;;;;;1.80;99.90;;;;;;4915654;29;20386;-70
2022/12/04 06:06:20;;;;;;;;;;;1.80;99.90;;;;;;4922853;29;20393;-70
2022/12/04 06:08:47;;;;;;;;;;;1.80;99.90;;;;;;4925004;29;20398;-70
2022/12/04 06:11:15;;;;;;;;;;;1.70;99.90;;;;;;4919661;29;20002;-70
2022/12/04 06:13:44;;;;;;;;;;;1.70;99.90;;;;;;4916031;29;19978;-68
2022/12/04 06:16:14;;;;;;;;;;;1.70;99.90;;;;;;4920660;29;19958;-71
2022/12/04 06:18:41;;;;;;;;;;;1.70;99.90;;;;;;4915633;29;20135;-70
2022/12/04 06:21:08;;;;;;;;;;;1.70;99.90;;;;;;4915096;29;19927;-70
2022/12/04 06:23:35;;;;;;;;;;;1.70;99.90;;;;;;4915695;29;19978;-71
2022/12/04 06:26:03;;;;;;;;;;;1.70;99.90;;;;;;4914792;29;19928;-69
2022/12/04 06:28:30;;;;;;;;;;;1.70;99.90;;;;;;4915389;29;20310;-69
2022/12/04 06:31:02;;;;;;;;;;;1.70;99.90;;;;;;4909700;29;20295;-70
2022/12/04 06:33:29;;;;;;;;;;;1.70;99.90;;;;;;4913467;29;20022;-70
2022/12/04 06:35:59;;;;;;;;;;;1.70;99.90;;;;;;4915046;29;19934;-70
2022/12/04 06:38:26;;;;;;;;;;;1.70;99.90;;;;;;4938267;29;19933;-70
2022/12/04 06:40:53;;;;;;;;;;;1.70;99.90;;;;;;4924180;29;19934;-70
2022/12/04 06:43:19;;;;;;;;;;;1.70;99.90;;;;;;4927616;29;19927;-70
2022/12/04 06:45:46;;;;;;;;;;;1.70;99.90;;;;;;4917597;29;19931;-70
2022/12/04 06:48:15;;;;;;;;;;;1.70;99.90;;;;;;4928983;29;19927;-70
2022/12/04 06:50:41;;;;;;;;;;;1.70;99.90;;;;;;4915387;29;19935;-70
2022/12/04 06:53:08;;;;;;;;;;;1.70;99.90;;;;;;4913474;29;19991;-71
2022/12/04 06:55:35;;;;;;;;;;;1.70;99.90;;;;;;4924326;29;19931;-70
2022/12/04 06:58:02;;;;;;;;;;;1.70;99.90;;;;;;4920677;29;19931;-68
2022/12/04 07:00:28;;;;;;;;;;;1.70;99.90;;;;;;4923681;29;20379;-69
2022/12/04 07:02:55;;;;;;;;;;;1.70;99.90;;;;;;4921638;29;19927;-71
2022/12/04 07:05:23;;;;;;;;;;;1.70;99.90;;;;;;4914598;29;19931;-69
2022/12/04 07:07:50;;;;;;;;;;;1.60;99.90;;;;;;4938973;29;19927;-70
2022/12/04 07:10:17;;;;;;;;;;;1.70;99.90;;;;;;4914342;29;20360;-71
2022/12/04 07:12:43;;;;;;;;;;;1.70;99.90;;;;;;4919247;29;19955;-71
2022/12/04 07:15:10;;;;;;;;;;;1.70;99.90;;;;;;4919263;29;20299;-71
2022/12/04 07:17:37;;;;;;;;;;;1.70;99.90;;;;;;4921690;29;19938;-71
2022/12/04 07:20:05;;;;;;;;;;;1.70;99.90;;;;;;4924876;29;19951;-70
2022/12/04 07:22:33;;;;;;;;;;;1.70;99.90;;;;;;4917780;29;20031;-71
2022/12/04 07:25:00;;;;;;;;;;;1.70;99.90;;;;;;4914483;29;19982;-71
2022/12/04 07:27:26;;;;;;;;;;;1.70;99.90;;;;;;4920686;29;20394;-71
2022/12/04 07:29:53;;;;;;;;;;;1.70;99.90;;;;;;4914803;29;19934;-70
2022/12/04 07:32:20;;;;;;;;;;;1.70;99.90;;;;;;4916938;29;19986;-70
2022/12/04 07:34:47;;;;;;;;;;;1.70;99.90;;;;;;4915725;29;19976;-70
2022/12/04 07:37:13;;;;;;;;;;;1.70;99.90;;;;;;4923427;29;19926;-70
2022/12/04 07:39:42;;;;;;;;;;;1.70;99.90;;;;;;4914724;29;20052;-70
2022/12/04 07:42:08;;;;;;;;;;;1.70;99.90;;;;;;4914341;29;19927;-71
2022/12/04 07:44:36;;;;;;;;;;;1.70;99.90;;;;;;4912456;29;19974;-70
2022/12/04 07:47:02;;;;;;;;;;;1.70;99.90;;;;;;4909156;29;20305;-70
2022/12/04 07:49:29;;;;;;;;;;;1.70;99.90;;;;;;4921652;29;19931;-70
2022/12/04 07:51:56;;;;;;;;;;;1.70;99.90;;;;;;4913791;29;19942;-71
2022/12/04 07:54:23;;;;;;;;;;;1.70;99.90;;;;;;4915854;29;20008;-71
2022/12/04 07:56:51;;;;;;;;;;;1.70;99.90;;;;;;4915667;29;19935;-70
2022/12/04 07:59:18;;;;;;;;;;;1.70;99.90;;;;;;4929838;29;20402;-70
2022/12/04 08:01:44;;;;;;;;;;;1.70;99.90;;;;;;4914966;29;19927;-72
2022/12/04 08:04:11;;;;;;;;;;;1.60;99.90;;;;;;4907385;29;20469;-71
2022/12/04 08:06:38;;;;;;;;;;;1.70;99.90;;;;;;4918928;29;19927;-71
2022/12/04 08:09:05;;;;;;;;;;;1.70;99.90;;;;;;4912136;29;19939;-71
2022/12/04 08:11:32;;;;;;;;;;;1.70;99.90;;;;;;4929241;29;20303;-70
2022/12/04 08:14:01;;;;;;;;;;;1.60;99.90;;;;;;4916186;29;19935;-70
2022/12/04 08:16:29;;;;;;;;;;;1.60;99.90;;;;;;4914148;29;19935;-70
2022/12/04 08:18:56;;;;;;;;;;;1.60;99.90;;;;;;4919703;29;19981;-71
2022/12/04 08:21:25;;;;;;;;;;;1.60;99.90;;;;;;4930997;29;19931;-71
2022/12/04 08:23:53;;;;;;;;;;;1.60;99.90;;;;;;4917543;29;19982;-71
2022/12/04 08:26:20;;;;;;;;;;;1.60;99.90;;;;;;4917401;29;19927;-70
2022/12/04 08:28:47;;;;;;;;;;;1.60;99.90;;;;;;4917334;29;19986;-71
2022/12/04 08:31:17;;;;;;;;;;;1.60;99.90;;;;;;4926559;29;19950;-73
2022/12/04 08:33:45;;;;;;;;;;;1.50;99.90;;;;;;4917372;29;19931;-71
2022/12/04 08:36:13;;;;;;;;;;;1.50;99.90;;;;;;4923616;29;19931;-71
2022/12/04 08:38:40;;;;;;;;;;;1.60;99.90;;;;;;4926046;29;20010;-71
2022/12/04 08:41:08;;;;;;;;;;;1.60;99.90;;;;;;4911277;29;19931;-70
2022/12/04 08:43:35;;;;;;;;;;;1.60;99.90;;;;;;4918937;29;20023;-71
2022/12/04 08:46:03;;;;;;;;;;;1.60;99.90;;;;;;4915463;29;19943;-71
2022/12/04 08:48:31;;;;;;;;;;;1.60;99.90;;;;;;4916167;29;20026;-71
2022/12/04 08:50:58;;;;;;;;;;;1.60;99.90;;;;;;4916584;29;19931;-71
2022/12/04 08:53:25;;;;;;;;;;;1.60;99.90;;;;;;4915840;29;19970;-71
2022/12/04 08:55:52;;;;;;;;;;;1.60;99.90;;;;;;4928514;29;20409;-71
2022/12/04 08:58:19;;;;;;;;;;;1.50;99.90;;;;;;4912854;29;19987;-70
2022/12/04 09:00:47;;;;;;;;;;;1.50;99.90;;;;;;4925289;29;19966;-72
2022/12/04 09:03:14;;;;;;;;;;;1.50;99.90;;;;;;4916738;29;20307;-71
2022/12/04 09:05:44;;;;;;;;;;;1.50;99.90;;;;;;4915874;29;19991;-71
2022/12/04 09:08:11;;;;;;;;;;;1.50;99.90;;;;;;4915885;29;19931;-70
2022/12/04 09:10:38;;;;;;;;;;;1.50;99.90;;;;;;4916677;29;19982;-69
2022/12/04 09:13:05;;;;;;;;;;;1.50;99.90;;;;;;4915902;29;19927;-70
2022/12/04 09:15:32;;;;;;;;;;;1.50;99.90;;;;;;4909541;29;19979;-70
2022/12/04 09:17:59;;;;;;;;;;;1.50;99.90;;;;;;4916945;29;20390;-71
2022/12/04 09:20:26;;;;;;;;;;;1.50;99.90;;;;;;4911528;29;19983;-70
2022/12/04 09:22:54;;;;;;;;;;;1.50;99.90;;;;;;4927903;29;19982;-69
2022/12/04 09:25:21;;;;;;;;;;;1.60;99.90;;;;;;4913290;29;19970;-70
2022/12/04 09:27:47;;;;;;;;;;;1.50;99.90;;;;;;4919227;29;19939;-69
2022/12/04 09:30:14;;;;;;;;;;;1.50;99.90;;;;;;4921649;29;20449;-71
2022/12/04 09:32:41;;;;;;;;;;;1.50;99.90;;;;;;4923543;29;20457;-71
2022/12/04 09:35:08;;;;;;;;;;;1.50;99.90;;;;;;4914487;29;20426;-71
2022/12/04 09:37:36;;;;;;;;;;;1.50;99.90;;;;;;4915583;29;19935;-71
2022/12/04 09:40:05;;;;;;;;;;;1.60;99.90;;;;;;4913683;29;19933;-71
2022/12/04 09:42:37;;;;;;;;;;;1.60;99.90;;;;;;4913039;29;20021;-71
2022/12/04 09:45:08;;;;;;;;;;;1.50;99.90;;;;;;4922832;29;20363;-70
2022/12/04 09:47:37;;;;;;;;;;;1.50;99.90;;;;;;4929001;29;19970;-70
2022/12/04 09:50:05;;;;;;;;;;;1.50;99.90;;;;;;4915368;29;19931;-70
2022/12/04 09:52:41;;;;;;;;;;;1.50;99.90;;;;;;4923200;29;19927;-70
2022/12/04 09:55:14;;;;;;;;;;;1.50;99.90;;;;;;4918242;29;20066;-68
2022/12/04 09:57:42;;;;;;;;;;;1.50;99.90;;;;;;4919603;29;19927;-70
2022/12/04 10:00:12;;;;;;;;;;;1.50;99.90;;;;;;4912335;29;19932;-72
2022/12/04 10:02:40;;;;;;;;;;;1.50;99.90;;;;;;4914991;29;20329;-70
2022/12/04 10:05:14;;;;;;;;;;;1.60;99.90;;;;;;4922498;29;19935;-72
2022/12/04 10:07:45;;;;;;;;;;;1.60;99.90;;;;;;4915098;29;19927;-70
2022/12/04 10:10:17;;;;;;;;;;;1.60;99.90;;;;;;4914591;29;19931;-72
2022/12/04 10:12:49;;;;;;;;;;;1.60;99.90;;;;;;4914899;29;19966;-71
2022/12/04 10:15:25;;;;;;;;;;;1.60;99.90;;;;;;4917100;29;19927;-71
2022/12/04 10:18:06;;;;;;;;;;;1.50;99.90;;;;;;4942268;29;20358;-71
2022/12/04 10:20:48;;;;;;;;;;;1.50;99.90;;;;;;4915268;29;19934;-71
2022/12/04 10:23:21;;;;;;;;;;;1.50;99.90;;;;;;4912209;29;19931;-72
2022/12/04 10:25:51;;;;;;;;;;;1.50;99.90;;;;;;4919523;29;19970;-72
2022/12/04 10:28:21;;;;;;;;;;;1.60;99.90;;;;;;4913368;29;20454;-72
2022/12/04 10:30:50;;;;;;;;;;;1.50;99.90;;;;;;4916491;29;19927;-72
2022/12/04 10:33:19;;;;;;;;;;;1.60;99.90;;;;;;4915637;29;20402;-71
2022/12/04 10:35:47;;;;;;;;;;;1.60;99.90;;;;;;4920931;29;20297;-70
2022/12/04 10:38:20;;;;;;;;;;;1.60;99.90;;;;;;4913679;29;19990;-70
2022/12/04 10:40:47;;;;;;;;;;;1.60;99.90;;;;;;4914030;29;19934;-71
2022/12/04 10:43:18;;;;;;;;;;;1.60;99.90;;;;;;4914381;29;19931;-70
2022/12/04 10:45:45;;;;;;;;;;;1.60;99.90;;;;;;4918594;29;19978;-70
2022/12/04 10:48:18;;;;;;;;;;;1.60;99.90;;;;;;4913097;29;20343;-70
2022/12/04 10:50:45;;;;;;;;;;;1.60;99.90;;;;;;4921662;29;20018;-70
2022/12/04 10:53:12;;;;;;;;;;;1.60;99.90;;;;;;4923944;29;19978;-71
2022/12/04 10:55:39;;;;;;;;;;;1.60;99.90;;;;;;4912274;29;19938;-71
2022/12/04 10:58:16;;;;;;;;;;;1.60;99.90;;;;;;4907125;29;19927;-70
2022/12/04 11:00:44;;;;;;;;;;;1.60;99.90;;;;;;4912511;29;19962;-71
2022/12/04 11:03:23;;;;;;;;;;;1.60;99.90;;;;;;4918792;29;19931;-71
2022/12/04 11:05:54;;;;;;;;;;;1.60;99.90;;;;;;4916141;29;19931;-71
2022/12/04 11:08:23;;;;;;;;;;;1.70;99.90;;;;;;4914305;29;20391;-71
2022/12/04 11:10:56;;;;;;;;;;;1.70;99.90;;;;;;4914298;29;20030;-70
2022/12/04 11:13:24;;;;;;;;;;;1.70;99.90;;;;;;4909982;29;19927;-71
2022/12/04 11:15:52;;;;;;;;;;;1.70;99.90;;;;;;4913745;29;19927;-71
2022/12/04 11:18:19;;;;;;;;;;;1.60;99.90;;;;;;4910570;29;20402;-71
2022/12/04 11:20:50;;;;;;;;;;;1.70;99.90;;;;;;4913054;29;20355;-69
2022/12/04 11:23:18;;;;;;;;;;;1.70;99.90;;;;;;4913722;29;19927;-69
2022/12/04 11:25:45;;;;;;;;;;;1.70;99.90;;;;;;4907960;29;19934;-69
2022/12/04 11:28:15;;;;;;;;;;;1.70;99.90;;;;;;4913925;29;20374;-69
2022/12/04 11:30:47;;;;;;;;;;;1.70;99.90;;;;;;4914818;29;19963;-69
2022/12/04 11:33:16;;;;;;;;;;;1.70;99.90;;;;;;4911557;29;19931;-69
2022/12/04 11:35:43;;;;;;;;;;;1.80;99.90;;;;;;4909133;29;19927;-69
2022/12/04 11:38:13;;;;;;;;;;;1.80;99.90;;;;;;4911921;29;19935;-69
2022/12/04 11:40:45;;;;;;;;;;;1.80;99.90;;;;;;4911858;29;19939;-69
2022/12/04 11:43:12;;;;;;;;;;;1.80;99.90;;;;;;4913312;29;19927;-69
2022/12/04 11:45:40;;;;;;;;;;;1.80;99.90;;;;;;4911756;29;19931;-69
2022/12/04 11:48:16;;;;;;;;;;;1.80;99.90;;;;;;4911842;29;19931;-69
2022/12/04 11:50:47;;;;;;;;;;;1.80;99.90;;;;;;4930057;29;19927;-69
2022/12/04 11:53:16;;;;;;;;;;;1.80;99.90;;;;;;4914346;29;19927;-69
2022/12/04 11:55:52;;;;;;;;;;;1.80;99.90;;;;;;4916586;29;20386;-70
2022/12/04 11:58:29;;;;;;;;;;;1.80;99.90;;;;;;4913571;29;19951;-69
2022/12/04 12:00:59;;;;;;;;;;;1.80;99.90;;;;;;4931424;29;19970;-70
2022/12/04 12:03:32;;;;;;;;;;;1.80;99.90;;;;;;4930245;29;19932;-70
2022/12/04 12:06:10;;;;;;;;;;;1.80;99.90;;;;;;4909760;29;19927;-69
2022/12/04 12:08:42;;;;;;;;;;;1.80;99.90;;;;;;4932879;29;19931;-70
2022/12/04 12:11:14;;;;;;;;;;;1.80;99.90;;;;;;4916121;29;19979;-72
2022/12/04 12:13:46;;;;;;;;;;;1.90;99.90;;;;;;4911907;29;19927;-70
2022/12/04 12:16:17;;;;;;;;;;;1.90;99.90;;;;;;4912600;29;19938;-70
2022/12/04 12:18:52;;;;;;;;;;;1.90;99.90;;;;;;4915998;29;19931;-71
2022/12/04 12:21:22;;;;;;;;;;;1.80;99.90;;;;;;4916092;29;19931;-71
2022/12/04 12:23:57;;;;;;;;;;;1.90;99.90;;;;;;4916598;29;20026;-71
2022/12/04 12:26:26;;;;;;;;;;;1.80;99.90;;;;;;4916449;29;19952;-70
2022/12/04 12:29:04;;;;;;;;;;;1.80;99.90;;;;;;4918594;29;19931;-71
2022/12/04 12:31:41;;;;;;;;;;;1.80;99.90;;;;;;4913862;29;19927;-71
2022/12/04 12:34:13;;;;;;;;;;;1.90;99.90;;;;;;4908118;29;20072;-72
2022/12/04 12:36:42;;;;;;;;;;;1.90;99.90;;;;;;4912000;29;19927;-72
2022/12/04 12:39:11;;;;;;;;;;;1.90;99.90;;;;;;4912405;29;20030;-72
2022/12/04 12:41:39;;;;;;;;;;;1.90;99.90;;;;;;4914649;29;19935;-71
2022/12/04 12:44:10;;;;;;;;;;;1.90;99.90;;;;;;4918053;29;19931;-72
2022/12/04 12:46:39;;;;;;;;;;;1.90;99.90;;;;;;4911790;29;19935;-72
2022/12/04 12:49:10;;;;;;;;;;;1.90;99.90;;;;;;4914182;29;20297;-70
2022/12/04 12:51:41;;;;;;;;;;;2.00;99.90;;;;;;4921342;29;20465;-73
2022/12/04 12:54:15;;;;;;;;;;;2.00;99.90;;;;;;4914479;29;19930;-73
2022/12/04 12:56:42;;;;;;;;;;;1.90;99.90;;;;;;4919618;29;19926;-71
2022/12/04 12:59:12;;;;;;;;;;;2.00;99.90;;;;;;4915848;29;19935;-72
2022/12/04 13:01:43;;;;;;;;;;;2.00;99.90;;;;;;4924128;29;19931;-72
2022/12/04 13:04:12;;;;;;;;;;;2.00;99.90;;;;;;4915572;29;19988;-72
2022/12/04 13:06:46;;;;;;;;;;;2.10;99.90;;;;;;4932318;29;19927;-72
2022/12/04 13:09:17;;;;;;;;;;;2.10;99.90;;;;;;4917521;29;19931;-73
2022/12/04 13:11:45;;;;;;;;;;;2.10;99.90;;;;;;4929175;29;19949;-71
2022/12/04 13:14:13;;;;;;;;;;;2.10;99.90;;;;;;4915973;29;20410;-72
2022/12/04 13:16:41;;;;;;;;;;;2.20;99.90;;;;;;4932385;29;20239;-73
2022/12/04 13:19:11;;;;;;;;;;;2.20;99.90;;;;;;4919578;29;19931;-73
2022/12/04 13:21:41;;;;;;;;;;;2.20;99.90;;;;;;4915247;29;19958;-71
2022/12/04 13:24:23;;;;;;;;;;;2.20;99.90;;;;;;4909108;29;19943;-71
2022/12/04 13:26:55;;;;;;;;;;;2.30;99.90;;;;;;4901791;29;19934;-71
2022/12/04 13:29:30;;;;;;;;;;;2.30;99.90;;;;;;4911206;29;20014;-72
2022/12/04 13:32:02;;;;;;;;;;;2.20;99.90;;;;;;4929879;29;20309;-71
2022/12/04 13:34:37;;;;;;;;;;;2.20;99.90;;;;;;4916714;29;19927;-73
2022/12/04 13:37:16;;;;;;;;;;;2.20;99.90;;;;;;4933429;29;20013;-71
2022/12/04 13:40:02;;;;;;;;;;;2.20;99.90;;;;;;4909721;29;19927;-73
2022/12/04 13:42:31;;;;;;;;;;;2.20;99.90;;;;;;4914012;29;19962;-75
2022/12/04 13:44:59;;;;;;;;;;;2.20;99.90;;;;;;4917173;29;19930;-71
2022/12/04 13:47:28;;;;;;;;;;;2.20;99.90;;;;;;4921873;29;19966;-71
2022/12/04 13:50:06;;;;;;;;;;;2.20;99.90;;;;;;4918498;29;19926;-72
2022/12/04 13:52:39;;;;;;;;;;;2.20;99.90;;;;;;4924164;29;20042;-72
2022/12/04 13:55:21;;;;;;;;;;;2.20;99.90;;;;;;4928929;29;19928;-72
2022/12/04 13:57:54;;;;;;;;;;;2.20;99.90;;;;;;4926174;29;19935;-72
2022/12/04 14:00:25;;;;;;;;;;;2.20;99.90;;;;;;4923454;29;19926;-73
2022/12/04 14:02:53;;;;;;;;;;;2.20;99.90;;;;;;4918590;29;19993;-72
2022/12/04 14:05:26;;;;;;;;;;;2.10;99.90;;;;;;4927385;29;19990;-73
2022/12/04 14:07:59;;;;;;;;;;;2.10;99.90;;;;;;4915757;29;20022;-73
2022/12/04 14:10:27;;;;;;;;;;;2.10;99.90;;;;;;4920551;29;19927;-74
2022/12/04 14:13:00;;;;;;;;;;;2.10;99.90;;;;;;4921906;29;20352;-72
2022/12/04 14:15:27;;;;;;;;;;;2.00;99.90;;;;;;4914658;29;19935;-72
2022/12/04 14:17:59;;;;;;;;;;;2.10;99.90;;;;;;4925139;29;20410;-72
2022/12/04 14:20:27;;;;;;;;;;;2.10;99.90;;;;;;4910371;29;19927;-72
2022/12/04 14:22:54;;;;;;;;;;;2.10;99.90;;;;;;4913235;29;19927;-71
2022/12/04 14:25:33;;;;;;;;;;;2.10;99.90;;;;;;4913939;29;19974;-73
2022/12/04 14:28:11;;;;;;;;;;;2.10;99.90;;;;;;4909454;29;19931;-72
2022/12/04 14:30:39;;;;;;;;;;;2.10;99.90;;;;;;4914578;29;19927;-72
2022/12/04 14:33:08;;;;;;;;;;;2.00;99.90;;;;;;4914694;29;20368;-73
2022/12/04 14:35:43;;;;;;;;;;;2.10;99.90;;;;;;4915468;29;19950;-72
2022/12/04 14:38:15;;;;;;;;;;;2.00;99.90;;;;;;4926861;29;20351;-71
2022/12/04 14:40:44;;;;;;;;;;;2.00;99.90;;;;;;4912478;29;20414;-74
2022/12/04 14:43:16;;;;;;;;;;;2.00;99.90;;;;;;4915384;29;19955;-74
2022/12/04 14:45:45;;;;;;;;;;;2.00;99.90;;;;;;4914563;29;19931;-72
2022/12/04 14:48:21;;;;;;;;;;;2.00;99.90;;;;;;4914492;29;20417;-71
2022/12/04 14:50:53;;;;;;;;;;;2.00;99.90;;;;;;4909139;29;19927;-71
2022/12/04 14:53:26;;;;;;;;;;;2.00;99.90;;;;;;4914142;29;19970;-72
2022/12/04 14:56:00;;;;;;;;;;;2.00;99.90;;;;;;4931973;28;19931;-71
2022/12/04 14:58:30;;;;;;;;;;;2.00;99.90;;;;;;4917741;29;19931;-72
2022/12/04 15:00:57;;;;;;;;;;;2.00;99.90;;;;;;4909892;29;19927;-72
2022/12/04 15:03:24;;;;;;;;;;;1.90;99.90;;;;;;4914197;29;19942;-73
2022/12/04 15:05:52;;;;;;;;;;;1.90;99.90;;;;;;4912094;29;19939;-72
2022/12/04 15:08:19;;;;;;;;;;;2.00;99.90;;;;;;4913856;29;20536;-72
2022/12/04 15:13:36;;;;;;;;;;;2.00;99.90;;;;;;4927553;29;19950;-72
2022/12/04 15:16:08;;;;;;;;;;;2.00;99.90;;;;;;4917136;29;19928;-73
2022/12/04 15:18:34;;;;;;;;;;;2.00;99.90;;;;;;4915942;29;19927;-72
2022/12/04 15:21:02;;;;;;;;;;;2.00;99.90;;;;;;4914084;29;20334;-74
2022/12/04 15:23:31;;;;;;;;;;;2.00;99.90;;;;;;4910065;29;20022;-74
2022/12/04 15:25:58;;;;;;;;;;;2.00;99.90;;;;;;4931101;29;19966;-72
2022/12/04 15:28:27;;;;;;;;;;;2.00;99.90;;;;;;4918365;29;20438;-73
2022/12/04 15:30:56;;;;;;;;;;;2.00;99.90;;;;;;4921284;29;19987;-72
2022/12/04 15:33:25;;;;;;;;;;;1.90;99.90;;;;;;4917469;29;19935;-73
2022/12/04 15:35:53;;;;;;;;;;;1.90;99.90;;;;;;4919539;29;20026;-73
2022/12/04 15:38:20;;;;;;;;;;;1.90;99.90;;;;;;4917213;29;19935;-73
2022/12/04 15:40:51;;;;;;;;;;;1.90;99.90;;;;;;4917426;29;20311;-73
2022/12/04 15:43:22;;;;;;;;;;;1.80;99.90;;;;;;4920709;29;20304;-71
2022/12/04 15:45:49;;;;;;;;;;;1.90;99.90;;;;;;4911654;29;19984;-73
2022/12/04 15:48:24;;;;;;;;;;;1.90;99.90;;;;;;4917684;29;19931;-72
2022/12/04 15:50:55;;;;;;;;;;;1.80;99.90;;;;;;4936343;29;19927;-72
2022/12/04 15:53:25;;;;;;;;;;;1.90;99.90;;;;;;4921455;29;19934;-72
2022/12/04 15:55:53;;;;;;;;;;;1.90;99.90;;;;;;4917600;29;19991;-71
2022/12/04 15:58:20;;;;;;;;;;;1.90;99.90;;;;;;4917314;29;20367;-71
2022/12/04 16:00:47;;;;;;;;;;;1.90;99.90;;;;;;4919040;29;19935;-71
2022/12/04 16:03:23;;;;;;;;;;;1.90;99.90;;;;;;4916256;29;19967;-72
2022/12/04 16:06:01;;;;;;;;;;;1.90;99.90;;;;;;4918584;29;19927;-72
2022/12/04 16:08:30;;;;;;;;;;;1.90;99.90;;;;;;4918201;29;19939;-71
2022/12/04 16:10:58;;;;;;;;;;;1.90;99.90;;;;;;4917818;29;20427;-72
2022/12/04 16:13:27;;;;;;;;;;;1.80;99.90;;;;;;4913694;29;19927;-73
2022/12/04 16:15:57;;;;;;;;;;;1.90;99.90;;;;;;4909900;29;19927;-71
2022/12/04 16:18:24;;;;;;;;;;;1.90;99.90;;;;;;4926895;29;19927;-72
2022/12/04 16:20:52;;;;;;;;;;;1.80;99.90;;;;;;4916264;29;19931;-73
2022/12/04 16:23:19;;;;;;;;;;;1.80;99.90;;;;;;4916767;29;19931;-72
2022/12/04 16:25:46;;;;;;;;;;;1.90;99.90;;;;;;4916625;29;19990;-71
2022/12/04 16:28:13;;;;;;;;;;;1.80;99.90;;;;;;4916100;29;19927;-71
2022/12/04 16:30:39;;;;;;;;;;;1.80;99.90;;;;;;4915504;29;19939;-71
2022/12/04 16:33:06;;;;;;;;;;;1.90;99.90;;;;;;4913446;29;19927;-72
2022/12/04 16:35:33;;;;;;;;;;;1.80;99.90;;;;;;4915534;29;20395;-71
2022/12/04 16:38:01;;;;;;;;;;;1.90;99.90;;;;;;4913380;29;19931;-72
2022/12/04 16:40:28;;;;;;;;;;;1.90;99.90;;;;;;4916541;29;19931;-72
2022/12/04 16:42:55;;;;;;;;;;;1.80;99.90;;;;;;4911512;29;19934;-72
2022/12/04 16:45:24;;;;;;;;;;;1.90;99.90;;;;;;4916297;29;19982;-72
2022/12/04 16:47:51;;;;;;;;;;;1.90;99.90;;;;;;4909891;29;20418;-71
2022/12/04 16:50:18;;;;;;;;;;;1.90;99.90;;;;;;4917281;29;19927;-71
2022/12/04 16:52:45;;;;;;;;;;;1.90;99.90;;;;;;4916149;29;19927;-72
2022/12/04 16:55:18;;;;;;;;;;;1.90;99.90;;;;;;4915670;29;19928;-71
2022/12/04 16:57:45;;;;;;;;;;;1.90;99.90;;;;;;4916261;29;19931;-72
2022/12/04 17:00:12;;;;;;;;;;;2.00;99.90;;;;;;4921704;29;19927;-73
2022/12/04 17:02:39;;;;;;;;;;;2.00;99.90;;;;;;4912708;29;19927;-73
2022/12/04 17:05:07;;;;;;;;;;;2.00;99.90;;;;;;4913655;29;19931;-70
2022/12/04 17:07:33;;;;;;;;;;;2.10;99.90;;;;;;4913323;29;19927;-72
2022/12/04 17:10:00;;;;;;;;;;;2.00;99.90;;;;;;4916186;29;19931;-73
2022/12/04 17:12:28;;;;;;;;;;;2.00;99.90;;;;;;4918169;29;20386;-71
2022/12/04 17:14:55;;;;;;;;;;;2.00;99.90;;;;;;4916911;29;19963;-70
2022/12/04 17:17:22;;;;;;;;;;;2.00;99.90;;;;;;4916312;29;19934;-72
2022/12/04 17:19:48;;;;;;;;;;;2.00;99.90;;;;;;4915244;29;19931;-72
2022/12/04 17:22:19;;;;;;;;;;;2.00;99.90;;;;;;4915596;29;19928;-71
2022/12/04 17:24:46;;;;;;;;;;;2.00;99.90;;;;;;4915700;29;19927;-72
2022/12/04 17:27:13;;;;;;;;;;;2.10;99.90;;;;;;4915990;29;20466;-72
2022/12/04 17:29:41;;;;;;;;;;;2.10;99.90;;;;;;4923705;29;19927;-73
2022/12/04 17:32:08;;;;;;;;;;;2.10;99.90;;;;;;4940217;29;20351;-72
2022/12/04 17:34:35;;;;;;;;;;;2.10;99.90;;;;;;4933403;29;19927;-71
2022/12/04 17:37:01;;;;;;;;;;;2.10;99.90;;;;;;4920149;29;19957;-70
2022/12/04 17:39:28;;;;;;;;;;;2.10;99.90;;;;;;4915355;29;19994;-72
2022/12/04 17:41:55;;;;;;;;;;;2.10;99.90;;;;;;4915994;29;19927;-70
2022/12/04 17:44:22;;;;;;;;;;;2.10;99.90;;;;;;4917381;29;19995;-70
2022/12/04 17:46:50;;;;;;;;;;;2.10;99.90;;;;;;4922371;29;19927;-71
2022/12/04 17:49:17;;;;;;;;;;;2.10;99.90;;;;;;4925753;29;19974;-72
2022/12/04 17:51:44;;;;;;;;;;;2.10;99.90;;;;;;4919165;29;19972;-71
2022/12/04 17:54:11;;;;;;;;;;;2.10;99.90;;;;;;4921512;29;19931;-71
2022/12/04 17:56:38;;;;;;;;;;;2.10;99.90;;;;;;4914583;29;19927;-69
2022/12/04 17:59:05;;;;;;;;;;;2.00;99.90;;;;;;4915933;29;19931;-71
2022/12/04 18:01:32;;;;;;;;;;;2.00;99.90;;;;;;4918961;29;19927;-71
2022/12/04 18:04:02;;;;;;;;;;;2.00;99.90;;;;;;4926843;29;19930;-71
2022/12/04 18:06:30;;;;;;;;;;;2.00;99.90;;;;;;4926511;29;20021;-74
2022/12/04 18:12:25;;;;;;;;;;;2.00;99.90;;;;;;4888930;29;19988;-67
2022/12/04 18:14:52;;;;;;;;;;;2.00;99.90;;;;;;4891802;29;19927;-72
2022/12/04 18:17:20;;;;;;;;;;;2.10;99.90;;;;;;4888360;29;20018;-68
2022/12/04 18:19:48;;;;;;;;;;;2.10;99.90;;;;;;4892218;29;20022;-70
2022/12/04 18:22:15;;;;;;;;;;;2.20;99.90;;;;;;4890456;29;19935;-69
2022/12/04 18:24:42;;;;;;;;;;;2.20;99.90;;;;;;4897862;29;19928;-67
2022/12/04 18:27:09;;;;;;;;;;;2.30;99.90;;;;;;4897718;29;19927;-68
2022/12/04 18:29:37;;;;;;;;;;;2.20;99.90;;;;;;4896033;29;20389;-69
2022/12/04 18:32:04;;;;;;;;;;;2.30;99.90;;;;;;4889048;29;19943;-70
2022/12/04 18:34:31;;;;;;;;;;;2.20;99.90;;;;;;4888808;29;19931;-70
2022/12/04 18:36:59;;;;;;;;;;;2.30;99.90;;;;;;4890453;29;19928;-70
2022/12/04 18:39:26;;;;;;;;;;;2.30;99.90;;;;;;4886526;29;20407;-68
2022/12/04 18:41:54;;;;;;;;;;;2.30;99.90;;;;;;4895529;29;19927;-68
2022/12/04 18:44:21;;;;;;;;;;;2.30;99.90;;;;;;4887438;29;19928;-69
2022/12/04 18:46:48;;;;;;;;;;;2.30;99.90;;;;;;4893936;29;19975;-69
2022/12/04 18:49:14;;;;;;;;;;;2.30;99.90;;;;;;4900597;29;19935;-70
2022/12/04 18:51:43;;;;;;;;;;;2.30;99.90;;;;;;4890699;29;19932;-70
2022/12/04 18:54:13;;;;;;;;;;;2.40;99.90;;;;;;4912368;29;19940;-69
2022/12/04 18:56:39;;;;;;;;;;;2.40;99.90;;;;;;4895331;29;20422;-68
2022/12/04 18:59:10;;;;;;;;;;;2.40;99.90;;;;;;4896107;29;19934;-69
2022/12/04 19:01:37;;;;;;;;;;;2.30;99.90;;;;;;4895789;29;19933;-69